Castaner, Puerto Rico
Current Conditions -  °F | °C
As of 8:50 AM on Saturday 22 Nov 2014 (Local Time) from TJBQ Reporting Station
Broken Clouds Broken Clouds  
Wind Chill: 77°   Ceiling: 9000
Heat Index: 78°   Visibility: 10mi
Dew Point: 72°   Wind: 15mph
Humidity: 83%   Direction: 100°E
Pressure: 30.05"   Gusts: 18mph
Location:  18.16°N, 66.72°W
Report Text: TJBQ 221250Z 10013G16KT 10SM SCT012 BKN090 BKN120 25/22 A3005 RMK RWY08 ATIS P
Loading
Personal Weather Stations






























Interactive Weather Map New forecast layout! Learn more

10-Day Weather Forecast

Advertisements
Track Severe Weather on mobile